sensor_id;sensor_type;location;lat;lon;timestamp;pressure;altitude;pressure_sealevel;temperature;humidity
58967;BME280;44744;51.894;5.080;2023-05-10T00:00:33;100957.17;;;13.23;99.52
58967;BME280;44744;51.894;5.080;2023-05-10T00:01:33;100954.02;;;13.23;99.66
58967;BME280;44744;51.894;5.080;2023-05-10T00:02:34;100955.85;;;13.22;99.43
58967;BME280;44744;51.894;5.080;2023-05-10T00:03:34;100954.12;;;13.21;99.43
58967;BME280;44744;51.894;5.080;2023-05-10T00:04:34;100956.69;;;13.20;99.48
58967;BME280;44744;51.894;5.080;2023-05-10T00:05:35;100955.51;;;13.19;99.46
58967;BME280;44744;51.894;5.080;2023-05-10T00:06:35;100957.21;;;13.17;99.42
58967;BME280;44744;51.894;5.080;2023-05-10T00:07:35;100955.34;;;13.16;99.51
58967;BME280;44744;51.894;5.080;2023-05-10T00:08:35;100955.89;;;13.15;99.64
58967;BME280;44744;51.894;5.080;2023-05-10T00:09:37;100955.35;;;13.16;99.59
58967;BME280;44744;51.894;5.080;2023-05-10T00:10:37;100955.15;;;13.16;99.72
58967;BME280;44744;51.894;5.080;2023-05-10T00:11:37;100954.97;;;13.16;99.70
58967;BME280;44744;51.894;5.080;2023-05-10T00:12:38;100950.39;;;13.15;99.64
58967;BME280;44744;51.894;5.080;2023-05-10T00:13:38;100949.52;;;13.15;99.70
58967;BME280;44744;51.894;5.080;2023-05-10T00:14:38;100951.15;;;13.15;99.50
58967;BME280;44744;51.894;5.080;2023-05-10T00:15:39;100946.56;;;13.14;99.57
58967;BME280;44744;51.894;5.080;2023-05-10T00:16:39;100948.56;;;13.13;99.41
58967;BME280;44744;51.894;5.080;2023-05-10T00:17:39;100946.49;;;13.13;99.55
58967;BME280;44744;51.894;5.080;2023-05-10T00:18:40;100947.73;;;13.12;99.54
58967;BME280;44744;51.894;5.080;2023-05-10T00:19:40;100948.08;;;13.13;99.62
58967;BME280;44744;51.894;5.080;2023-05-10T00:20:40;100947.77;;;13.12;99.64
58967;BME280;44744;51.894;5.080;2023-05-10T00:21:40;100948.17;;;13.11;99.71
58967;BME280;44744;51.894;5.080;2023-05-10T00:22:41;100949.23;;;13.11;99.73
58967;BME280;44744;51.894;5.080;2023-05-10T00:23:41;100947.69;;;13.10;99.52
58967;BME280;44744;51.894;5.080;2023-05-10T00:24:41;100945.09;;;13.10;99.55
58967;BME280;44744;51.894;5.080;2023-05-10T00:25:41;100943.86;;;13.09;99.80
58967;BME280;44744;51.894;5.080;2023-05-10T00:26:42;100942.23;;;13.10;99.82
58967;BME280;44744;51.894;5.080;2023-05-10T00:27:42;100943.30;;;13.10;99.81
58967;BME280;44744;51.894;5.080;2023-05-10T00:28:42;100944.21;;;13.09;99.75
58967;BME280;44744;51.894;5.080;2023-05-10T00:29:43;100945.80;;;13.09;99.72
58967;BME280;44744;51.894;5.080;2023-05-10T00:30:43;100945.88;;;13.08;99.81
58967;BME280;44744;51.894;5.080;2023-05-10T00:31:43;100944.14;;;13.08;99.70
58967;BME280;44744;51.894;5.080;2023-05-10T00:32:44;100945.03;;;13.08;99.69
58967;BME280;44744;51.894;5.080;2023-05-10T00:33:44;100940.83;;;13.07;99.62
58967;BME280;44744;51.894;5.080;2023-05-10T00:34:44;100943.73;;;13.06;99.64
58967;BME280;44744;51.894;5.080;2023-05-10T00:35:44;100941.61;;;13.06;99.94
58967;BME280;44744;51.894;5.080;2023-05-10T00:36:45;100944.66;;;13.05;99.72
58967;BME280;44744;51.894;5.080;2023-05-10T00:37:45;100944.49;;;13.05;99.59
58967;BME280;44744;51.894;5.080;2023-05-10T00:38:45;100943.13;;;13.04;99.80
58967;BME280;44744;51.894;5.080;2023-05-10T00:39:45;100947.23;;;13.04;99.67
58967;BME280;44744;51.894;5.080;2023-05-10T00:40:46;100948.95;;;13.02;99.57
58967;BME280;44744;51.894;5.080;2023-05-10T00:41:46;100950.21;;;13.02;99.51
58967;BME280;44744;51.894;5.080;2023-05-10T00:42:47;100950.65;;;13.00;99.63
58967;BME280;44744;51.894;5.080;2023-05-10T00:43:47;100953.99;;;13.01;99.73
58967;BME280;44744;51.894;5.080;2023-05-10T00:44:47;100954.04;;;13.00;99.68
58967;BME280;44744;51.894;5.080;2023-05-10T00:45:48;100953.05;;;12.99;99.57
58967;BME280;44744;51.894;5.080;2023-05-10T00:46:49;100953.25;;;12.98;99.69
58967;BME280;44744;51.894;5.080;2023-05-10T00:47:50;100954.41;;;12.97;99.62
58967;BME280;44744;51.894;5.080;2023-05-10T00:48:51;100952.14;;;12.96;99.70
58967;BME280;44744;51.894;5.080;2023-05-10T00:49:52;100954.19;;;12.95;99.69
58967;BME280;44744;51.894;5.080;2023-05-10T00:50:52;100955.65;;;12.94;99.93
58967;BME280;44744;51.894;5.080;2023-05-10T00:51:53;100953.70;;;12.94;99.91
58967;BME280;44744;51.894;5.080;2023-05-10T00:52:53;100956.05;;;12.93;100.00
58967;BME280;44744;51.894;5.080;2023-05-10T00:53:54;100954.29;;;12.93;99.97
58967;BME280;44744;51.894;5.080;2023-05-10T00:54:55;100951.33;;;12.92;99.98
58967;BME280;44744;51.894;5.080;2023-05-10T00:55:55;100949.36;;;12.89;99.99
58967;BME280;44744;51.894;5.080;2023-05-10T00:56:56;100953.86;;;12.89;99.98
58967;BME280;44744;51.894;5.080;2023-05-10T00:57:56;100949.81;;;12.88;100.00
58967;BME280;44744;51.894;5.080;2023-05-10T00:58:57;100947.56;;;12.87;99.78
58967;BME280;44744;51.894;5.080;2023-05-10T00:59:57;100946.10;;;12.85;100.00
58967;BME280;44744;51.894;5.080;2023-05-10T01:00:58;100941.72;;;12.84;99.99
58967;BME280;44744;51.894;5.080;2023-05-10T01:01:58;100940.87;;;12.84;99.93
58967;BME280;44744;51.894;5.080;2023-05-10T01:02:59;100943.95;;;12.83;99.85
58967;BME280;44744;51.894;5.080;2023-05-10T01:03:59;100942.58;;;12.82;99.84
58967;BME280;44744;51.894;5.080;2023-05-10T01:05:00;100941.30;;;12.79;99.88
58967;BME280;44744;51.894;5.080;2023-05-10T01:06:01;100944.89;;;12.79;99.92
58967;BME280;44744;51.894;5.080;2023-05-10T01:07:02;100944.42;;;12.78;99.74
58967;BME280;44744;51.894;5.080;2023-05-10T01:08:02;100947.66;;;12.77;99.72
58967;BME280;44744;51.894;5.080;2023-05-10T01:09:02;100947.63;;;12.78;99.95
58967;BME280;44744;51.894;5.080;2023-05-10T01:10:03;100947.29;;;12.77;99.82
58967;BME280;44744;51.894;5.080;2023-05-10T01:11:05;100945.02;;;12.77;99.72
58967;BME280;44744;51.894;5.080;2023-05-10T01:12:06;100946.23;;;12.77;99.79
58967;BME280;44744;51.894;5.080;2023-05-10T01:13:06;100949.01;;;12.75;99.71
58967;BME280;44744;51.894;5.080;2023-05-10T01:14:08;100950.87;;;12.74;99.72
58967;BME280;44744;51.894;5.080;2023-05-10T01:15:09;100948.14;;;12.72;99.54
58967;BME280;44744;51.894;5.080;2023-05-10T01:16:10;100948.03;;;12.71;99.58
58967;BME280;44744;51.894;5.080;2023-05-10T01:17:11;100949.70;;;12.70;99.45
58967;BME280;44744;51.894;5.080;2023-05-10T01:18:12;100948.09;;;12.67;99.50
58967;BME280;44744;51.894;5.080;2023-05-10T01:19:19;100950.25;;;12.67;99.66
58967;BME280;44744;51.894;5.080;2023-05-10T01:20:22;100950.98;;;12.67;99.71
58967;BME280;44744;51.894;5.080;2023-05-10T01:21:43;100950.79;;;12.67;99.77
58967;BME280;44744;51.894;5.080;2023-05-10T01:23:09;100948.85;;;12.67;99.75
58967;BME280;44744;51.894;5.080;2023-05-10T01:26:14;100952.45;;;12.66;99.84
58967;BME280;44744;51.894;5.080;2023-05-10T01:29:04;100959.24;;;12.65;99.58
58967;BME280;44744;51.894;5.080;2023-05-10T01:33:01;100960.44;;;12.57;99.69
58967;BME280;44744;51.894;5.080;2023-05-10T01:34:21;100956.44;;;12.55;99.79
58967;BME280;44744;51.894;5.080;2023-05-10T01:35:37;100954.37;;;12.55;99.81
58967;BME280;44744;51.894;5.080;2023-05-10T01:36:54;100953.01;;;12.54;99.66
58967;BME280;44744;51.894;5.080;2023-05-10T01:38:04;100952.02;;;12.52;99.77
58967;BME280;44744;51.894;5.080;2023-05-10T01:39:32;100949.77;;;12.51;99.66
58967;BME280;44744;51.894;5.080;2023-05-10T01:40:52;100952.14;;;12.50;99.81
58967;BME280;44744;51.894;5.080;2023-05-10T01:42:14;100954.82;;;12.50;99.74
58967;BME280;44744;51.894;5.080;2023-05-10T01:43:23;100954.86;;;12.49;99.90
58967;BME280;44744;51.894;5.080;2023-05-10T01:44:35;100957.69;;;12.50;99.86
58967;BME280;44744;51.894;5.080;2023-05-10T01:45:43;100958.21;;;12.50;99.80
58967;BME280;44744;51.894;5.080;2023-05-10T01:46:51;100961.06;;;12.50;99.75
58967;BME280;44744;51.894;5.080;2023-05-10T01:48:05;100960.21;;;12.49;99.60
58967;BME280;44744;51.894;5.080;2023-05-10T01:49:23;100960.83;;;12.48;99.64
58967;BME280;44744;51.894;5.080;2023-05-10T01:50:27;100963.05;;;12.46;99.66
58967;BME280;44744;51.894;5.080;2023-05-10T01:51:38;100962.23;;;12.45;99.75
58967;BME280;44744;51.894;5.080;2023-05-10T01:52:45;100963.38;;;12.44;99.86
58967;BME280;44744;51.894;5.080;2023-05-10T01:53:48;100964.35;;;12.42;99.78
58967;BME280;44744;51.894;5.080;2023-05-10T01:54:53;100965.07;;;12.42;99.59
58967;BME280;44744;51.894;5.080;2023-05-10T01:55:56;100965.93;;;12.42;99.91
58967;BME280;44744;51.894;5.080;2023-05-10T01:57:00;100966.34;;;12.41;99.84
58967;BME280;44744;51.894;5.080;2023-05-10T01:58:15;100967.83;;;12.41;99.90
58967;BME280;44744;51.894;5.080;2023-05-10T01:59:19;100966.02;;;12.41;99.94
58967;BME280;44744;51.894;5.080;2023-05-10T02:00:21;100967.78;;;12.41;99.86
58967;BME280;44744;51.894;5.080;2023-05-10T02:01:23;100964.88;;;12.39;99.86
58967;BME280;44744;51.894;5.080;2023-05-10T02:02:25;100968.44;;;12.39;100.00
58967;BME280;44744;51.894;5.080;2023-05-10T02:03:28;100969.36;;;12.38;100.00
58967;BME280;44744;51.894;5.080;2023-05-10T02:04:30;100969.27;;;12.37;99.99
58967;BME280;44744;51.894;5.080;2023-05-10T02:05:32;100973.24;;;12.36;100.00
58967;BME280;44744;51.894;5.080;2023-05-10T02:06:33;100973.81;;;12.35;100.00
58967;BME280;44744;51.894;5.080;2023-05-10T02:07:36;100974.95;;;12.34;99.96
58967;BME280;44744;51.894;5.080;2023-05-10T02:08:37;100975.86;;;12.34;100.00
58967;BME280;44744;51.894;5.080;2023-05-10T02:09:40;100977.23;;;12.34;100.00
58967;BME280;44744;51.894;5.080;2023-05-10T02:10:45;100973.13;;;12.35;99.99
58967;BME280;44744;51.894;5.080;2023-05-10T02:11:48;100976.61;;;12.36;99.99
58967;BME280;44744;51.894;5.080;2023-05-10T02:12:50;100970.42;;;12.36;100.00
58967;BME280;44744;51.894;5.080;2023-05-10T02:13:55;100971.48;;;12.36;100.00
58967;BME280;44744;51.894;5.080;2023-05-10T02:14:57;100972.93;;;12.35;100.00
58967;BME280;44744;51.894;5.080;2023-05-10T02:15:59;100974.72;;;12.35;100.00
58967;BME280;44744;51.894;5.080;2023-05-10T02:17:06;100975.49;;;12.34;100.00
58967;BME280;44744;51.894;5.080;2023-05-10T02:18:07;100978.42;;;12.32;100.00
58967;BME280;44744;51.894;5.080;2023-05-10T02:19:09;100978.96;;;12.32;100.00
58967;BME280;44744;51.894;5.080;2023-05-10T02:20:11;100981.39;;;12.33;100.00
58967;BME280;44744;51.894;5.080;2023-05-10T02:21:13;100981.77;;;12.33;100.00
58967;BME280;44744;51.894;5.080;2023-05-10T02:22:16;100982.55;;;12.34;100.00
58967;BME280;44744;51.894;5.080;2023-05-10T02:23:17;100981.34;;;12.34;100.00
58967;BME280;44744;51.894;5.080;2023-05-10T02:24:21;100985.23;;;12.34;100.00
58967;BME280;44744;51.894;5.080;2023-05-10T02:25:24;100983.48;;;12.34;100.00
58967;BME280;44744;51.894;5.080;2023-05-10T02:26:25;100984.35;;;12.34;100.00
58967;BME280;44744;51.894;5.080;2023-05-10T02:27:27;100985.20;;;12.34;100.00
58967;BME280;44744;51.894;5.080;2023-05-10T02:28:29;100987.56;;;12.34;100.00
58967;BME280;44744;51.894;5.080;2023-05-10T02:29:32;100987.65;;;12.32;100.00
58967;BME280;44744;51.894;5.080;2023-05-10T02:30:34;100990.89;;;12.32;100.00
58967;BME280;44744;51.894;5.080;2023-05-10T02:31:36;100993.60;;;12.31;100.00
58967;BME280;44744;51.894;5.080;2023-05-10T02:32:37;100994.30;;;12.31;100.00
58967;BME280;44744;51.894;5.080;2023-05-10T02:33:38;100990.58;;;12.31;100.00
58967;BME280;44744;51.894;5.080;2023-05-10T02:34:40;100995.30;;;12.28;100.00
58967;BME280;44744;51.894;5.080;2023-05-10T02:35:41;100995.98;;;12.29;100.00
58967;BME280;44744;51.894;5.080;2023-05-10T02:36:42;100994.38;;;12.29;100.00
58967;BME280;44744;51.894;5.080;2023-05-10T02:37:44;100995.49;;;12.28;100.00
58967;BME280;44744;51.894;5.080;2023-05-10T02:38:45;100990.86;;;12.28;100.00
58967;BME280;44744;51.894;5.080;2023-05-10T02:39:48;100992.80;;;12.29;100.00
58967;BME280;44744;51.894;5.080;2023-05-10T02:40:50;100994.39;;;12.29;100.00
58967;BME280;44744;51.894;5.080;2023-05-10T02:41:52;100994.86;;;12.27;100.00
58967;BME280;44744;51.894;5.080;2023-05-10T02:42:54;100996.27;;;12.27;100.00
58967;BME280;44744;51.894;5.080;2023-05-10T02:43:59;100992.23;;;12.26;100.00
58967;BME280;44744;51.894;5.080;2023-05-10T02:45:06;100994.02;;;12.26;100.00
58967;BME280;44744;51.894;5.080;2023-05-10T02:46:07;100998.94;;;12.27;100.00
58967;BME280;44744;51.894;5.080;2023-05-10T02:47:08;100997.05;;;12.26;100.00
58967;BME280;44744;51.894;5.080;2023-05-10T02:48:08;100999.35;;;12.26;100.00
58967;BME280;44744;51.894;5.080;2023-05-10T02:49:08;100993.84;;;12.23;100.00
58967;BME280;44744;51.894;5.080;2023-05-10T02:50:09;100999.02;;;12.23;100.00
58967;BME280;44744;51.894;5.080;2023-05-10T02:51:11;100994.73;;;12.23;100.00
58967;BME280;44744;51.894;5.080;2023-05-10T02:52:21;100997.81;;;12.22;100.00
58967;BME280;44744;51.894;5.080;2023-05-10T02:53:35;100998.75;;;12.21;100.00
58967;BME280;44744;51.894;5.080;2023-05-10T02:54:44;100999.54;;;12.20;100.00
58967;BME280;44744;51.894;5.080;2023-05-10T02:55:50;100995.61;;;12.20;100.00
58967;BME280;44744;51.894;5.080;2023-05-10T02:56:57;100994.21;;;12.20;100.00
58967;BME280;44744;51.894;5.080;2023-05-10T02:58:01;100994.97;;;12.19;100.00
58967;BME280;44744;51.894;5.080;2023-05-10T02:59:02;100995.69;;;12.19;100.00
58967;BME280;44744;51.894;5.080;2023-05-10T03:00:03;100992.31;;;12.19;100.00
58967;BME280;44744;51.894;5.080;2023-05-10T03:01:03;100993.58;;;12.19;100.00
58967;BME280;44744;51.894;5.080;2023-05-10T03:02:04;100990.73;;;12.19;100.00
58967;BME280;44744;51.894;5.080;2023-05-10T03:03:04;100992.68;;;12.19;100.00
58967;BME280;44744;51.894;5.080;2023-05-10T03:04:05;100991.29;;;12.19;100.00
58967;BME280;44744;51.894;5.080;2023-05-10T03:05:05;100995.37;;;12.19;100.00
58967;BME280;44744;51.894;5.080;2023-05-10T03:06:06;100992.89;;;12.18;100.00
58967;BME280;44744;51.894;5.080;2023-05-10T03:07:07;100992.52;;;12.19;100.00
58967;BME280;44744;51.894;5.080;2023-05-10T03:08:09;100991.65;;;12.18;100.00
58967;BME280;44744;51.894;5.080;2023-05-10T03:09:10;100992.75;;;12.18;100.00
58967;BME280;44744;51.894;5.080;2023-05-10T03:10:12;100990.60;;;12.18;100.00
58967;BME280;44744;51.894;5.080;2023-05-10T03:15:10;100992.70;;;12.16;100.00
58967;BME280;44744;51.894;5.080;2023-05-10T03:16:16;100994.02;;;12.14;100.00
58967;BME280;44744;51.894;5.080;2023-05-10T03:17:45;100992.23;;;12.15;100.00
58967;BME280;44744;51.894;5.080;2023-05-10T03:19:02;100994.73;;;12.14;100.00
58967;BME280;44744;51.894;5.080;2023-05-10T03:20:09;100995.48;;;12.14;100.00
58967;BME280;44744;51.894;5.080;2023-05-10T03:21:11;100994.76;;;12.14;100.00
58967;BME280;44744;51.894;5.080;2023-05-10T03:22:21;100995.30;;;12.13;100.00
58967;BME280;44744;51.894;5.080;2023-05-10T03:23:34;100995.21;;;12.15;100.00
58967;BME280;44744;51.894;5.080;2023-05-10T03:24:35;100999.48;;;12.15;100.00
58967;BME280;44744;51.894;5.080;2023-05-10T03:25:37;100999.13;;;12.15;100.00
58967;BME280;44744;51.894;5.080;2023-05-10T03:26:39;100996.94;;;12.16;100.00
58967;BME280;44744;51.894;5.080;2023-05-10T03:27:43;101003.23;;;12.18;100.00
58967;BME280;44744;51.894;5.080;2023-05-10T03:28:45;101001.84;;;12.17;100.00
58967;BME280;44744;51.894;5.080;2023-05-10T03:29:48;101004.55;;;12.16;100.00
58967;BME280;44744;51.894;5.080;2023-05-10T03:30:49;101003.64;;;12.17;100.00
58967;BME280;44744;51.894;5.080;2023-05-10T03:31:50;101002.00;;;12.17;100.00
58967;BME280;44744;51.894;5.080;2023-05-10T03:33:11;101005.49;;;12.18;100.00
58967;BME280;44744;51.894;5.080;2023-05-10T03:34:12;101001.04;;;12.19;100.00
58967;BME280;44744;51.894;5.080;2023-05-10T03:35:12;101004.06;;;12.18;100.00
58967;BME280;44744;51.894;5.080;2023-05-10T03:36:12;101003.35;;;12.18;100.00
58967;BME280;44744;51.894;5.080;2023-05-10T03:37:13;101003.54;;;12.18;100.00
58967;BME280;44744;51.894;5.080;2023-05-10T03:38:13;101005.60;;;12.19;100.00
58967;BME280;44744;51.894;5.080;2023-05-10T03:39:13;101005.41;;;12.20;100.00
58967;BME280;44744;51.894;5.080;2023-05-10T03:40:14;101004.64;;;12.21;100.00
58967;BME280;44744;51.894;5.080;2023-05-10T03:41:14;101005.66;;;12.21;100.00
58967;BME280;44744;51.894;5.080;2023-05-10T03:42:14;101006.35;;;12.22;100.00
58967;BME280;44744;51.894;5.080;2023-05-10T03:43:15;101004.55;;;12.22;100.00
58967;BME280;44744;51.894;5.080;2023-05-10T03:44:15;101006.11;;;12.23;100.00
58967;BME280;44744;51.894;5.080;2023-05-10T03:45:15;101005.05;;;12.23;100.00
58967;BME280;44744;51.894;5.080;2023-05-10T03:46:15;101004.00;;;12.22;100.00
58967;BME280;44744;51.894;5.080;2023-05-10T03:47:16;101005.79;;;12.22;100.00
58967;BME280;44744;51.894;5.080;2023-05-10T03:48:16;101007.95;;;12.22;100.00
58967;BME280;44744;51.894;5.080;2023-05-10T03:49:16;101007.95;;;12.22;100.00
58967;BME280;44744;51.894;5.080;2023-05-10T03:50:17;101010.77;;;12.22;100.00
58967;BME280;44744;51.894;5.080;2023-05-10T03:51:17;101009.48;;;12.23;100.00
58967;BME280;44744;51.894;5.080;2023-05-10T03:52:17;101011.98;;;12.22;100.00
58967;BME280;44744;51.894;5.080;2023-05-10T03:53:17;101008.82;;;12.22;100.00
58967;BME280;44744;51.894;5.080;2023-05-10T03:54:20;101011.42;;;12.23;100.00
58967;BME280;44744;51.894;5.080;2023-05-10T03:55:21;101012.82;;;12.23;100.00
58967;BME280;44744;51.894;5.080;2023-05-10T03:56:21;101008.61;;;12.23;100.00
58967;BME280;44744;51.894;5.080;2023-05-10T03:57:21;101010.69;;;12.23;100.00
58967;BME280;44744;51.894;5.080;2023-05-10T03:58:22;101013.02;;;12.23;100.00
58967;BME280;44744;51.894;5.080;2023-05-10T03:59:22;101012.82;;;12.23;100.00
58967;BME280;44744;51.894;5.080;2023-05-10T04:00:22;101014.91;;;12.24;100.00
58967;BME280;44744;51.894;5.080;2023-05-10T04:01:22;101017.39;;;12.24;100.00
58967;BME280;44744;51.894;5.080;2023-05-10T04:02:23;101015.98;;;12.24;100.00
58967;BME280;44744;51.894;5.080;2023-05-10T04:03:23;101016.30;;;12.24;100.00
58967;BME280;44744;51.894;5.080;2023-05-10T04:04:23;101016.61;;;12.25;100.00
58967;BME280;44744;51.894;5.080;2023-05-10T04:05:24;101019.04;;;12.26;100.00
58967;BME280;44744;51.894;5.080;2023-05-10T04:06:24;101015.00;;;12.25;100.00
58967;BME280;44744;51.894;5.080;2023-05-10T04:07:24;101011.86;;;12.24;100.00
58967;BME280;44744;51.894;5.080;2023-05-10T04:08:25;101015.91;;;12.25;100.00
58967;BME280;44744;51.894;5.080;2023-05-10T04:09:25;101016.98;;;12.24;100.00
58967;BME280;44744;51.894;5.080;2023-05-10T04:10:25;101016.74;;;12.26;100.00
58967;BME280;44744;51.894;5.080;2023-05-10T04:11:26;101016.41;;;12.25;100.00
58967;BME280;44744;51.894;5.080;2023-05-10T04:12:26;101013.95;;;12.25;100.00
58967;BME280;44744;51.894;5.080;2023-05-10T04:13:26;101013.45;;;12.24;100.00
58967;BME280;44744;51.894;5.080;2023-05-10T04:17:02;101018.78;;;12.24;100.00
58967;BME280;44744;51.894;5.080;2023-05-10T04:18:08;101016.27;;;12.25;100.00
58967;BME280;44744;51.894;5.080;2023-05-10T04:19:17;101018.23;;;12.27;100.00
58967;BME280;44744;51.894;5.080;2023-05-10T04:20:18;101021.50;;;12.29;100.00
58967;BME280;44744;51.894;5.080;2023-05-10T04:21:18;101019.55;;;12.29;100.00
58967;BME280;44744;51.894;5.080;2023-05-10T04:22:19;101016.16;;;12.30;100.00
58967;BME280;44744;51.894;5.080;2023-05-10T04:23:19;101017.86;;;12.31;100.00
58967;BME280;44744;51.894;5.080;2023-05-10T04:24:19;101020.82;;;12.32;100.00
58967;BME280;44744;51.894;5.080;2023-05-10T04:25:20;101019.23;;;12.32;100.00
58967;BME280;44744;51.894;5.080;2023-05-10T04:26:20;101021.66;;;12.33;100.00
58967;BME280;44744;51.894;5.080;2023-05-10T04:27:20;101020.07;;;12.33;100.00
58967;BME280;44744;51.894;5.080;2023-05-10T04:28:21;101021.45;;;12.33;100.00
58967;BME280;44744;51.894;5.080;2023-05-10T04:29:21;101022.92;;;12.33;100.00
58967;BME280;44744;51.894;5.080;2023-05-10T04:30:21;101017.14;;;12.31;100.00
58967;BME280;44744;51.894;5.080;2023-05-10T04:31:22;101018.39;;;12.31;100.00
58967;BME280;44744;51.894;5.080;2023-05-10T04:32:22;101019.49;;;12.31;100.00
58967;BME280;44744;51.894;5.080;2023-05-10T04:33:22;101018.11;;;12.30;100.00
58967;BME280;44744;51.894;5.080;2023-05-10T04:34:22;101018.55;;;12.32;100.00
58967;BME280;44744;51.894;5.080;2023-05-10T04:35:23;101021.39;;;12.32;100.00
58967;BME280;44744;51.894;5.080;2023-05-10T04:36:23;101021.56;;;12.31;100.00
58967;BME280;44744;51.894;5.080;2023-05-10T04:37:23;101023.31;;;12.32;100.00
58967;BME280;44744;51.894;5.080;2023-05-10T04:38:24;101022.27;;;12.32;100.00
58967;BME280;44744;51.894;5.080;2023-05-10T04:39:24;101020.66;;;12.32;100.00
58967;BME280;44744;51.894;5.080;2023-05-10T04:40:25;101024.40;;;12.32;100.00
58967;BME280;44744;51.894;5.080;2023-05-10T04:41:25;101023.66;;;12.32;100.00
58967;BME280;44744;51.894;5.080;2023-05-10T04:42:26;101021.41;;;12.31;100.00
58967;BME280;44744;51.894;5.080;2023-05-10T04:43:26;101024.75;;;12.31;100.00
58967;BME280;44744;51.894;5.080;2023-05-10T04:44:26;101023.16;;;12.32;100.00
58967;BME280;44744;51.894;5.080;2023-05-10T04:45:26;101023.39;;;12.31;100.00
58967;BME280;44744;51.894;5.080;2023-05-10T04:46:30;101021.30;;;12.30;100.00
58967;BME280;44744;51.894;5.080;2023-05-10T04:47:35;101023.76;;;12.30;100.00
58967;BME280;44744;51.894;5.080;2023-05-10T04:48:36;101024.95;;;12.31;100.00
58967;BME280;44744;51.894;5.080;2023-05-10T04:49:36;101029.15;;;12.32;100.00
58967;BME280;44744;51.894;5.080;2023-05-10T04:50:36;101023.61;;;12.33;100.00
58967;BME280;44744;51.894;5.080;2023-05-10T04:51:37;101026.05;;;12.34;100.00
58967;BME280;44744;51.894;5.080;2023-05-10T04:54:12;101032.35;;;12.35;100.00
58967;BME280;44744;51.894;5.080;2023-05-10T04:55:12;101032.52;;;12.35;100.00
58967;BME280;44744;51.894;5.080;2023-05-10T04:56:12;101032.84;;;12.36;100.00
58967;BME280;44744;51.894;5.080;2023-05-10T04:57:13;101030.15;;;12.36;100.00
58967;BME280;44744;51.894;5.080;2023-05-10T04:58:13;101032.23;;;12.37;100.00
58967;BME280;44744;51.894;5.080;2023-05-10T04:59:13;101029.06;;;12.37;100.00
58967;BME280;44744;51.894;5.080;2023-05-10T05:00:14;101030.86;;;12.36;100.00
58967;BME280;44744;51.894;5.080;2023-05-10T05:01:15;101033.69;;;12.36;100.00
58967;BME280;44744;51.894;5.080;2023-05-10T05:02:15;101033.67;;;12.37;100.00
58967;BME280;44744;51.894;5.080;2023-05-10T05:03:15;101033.11;;;12.37;100.00
58967;BME280;44744;51.894;5.080;2023-05-10T05:04:16;101030.46;;;12.37;100.00
58967;BME280;44744;51.894;5.080;2023-05-10T05:05:16;101028.10;;;12.38;100.00
58967;BME280;44744;51.894;5.080;2023-05-10T05:06:16;101030.19;;;12.39;100.00
58967;BME280;44744;51.894;5.080;2023-05-10T05:07:16;101032.30;;;12.39;100.00
58967;BME280;44744;51.894;5.080;2023-05-10T05:08:17;101033.84;;;12.40;100.00
58967;BME280;44744;51.894;5.080;2023-05-10T05:09:19;101034.34;;;12.40;100.00
58967;BME280;44744;51.894;5.080;2023-05-10T05:10:19;101037.33;;;12.41;100.00
58967;BME280;44744;51.894;5.080;2023-05-10T05:11:19;101038.01;;;12.41;100.00
58967;BME280;44744;51.894;5.080;2023-05-10T05:12:20;101039.77;;;12.41;100.00
58967;BME280;44744;51.894;5.080;2023-05-10T05:13:20;101042.64;;;12.41;100.00
58967;BME280;44744;51.894;5.080;2023-05-10T05:14:23;101041.42;;;12.40;100.00
58967;BME280;44744;51.894;5.080;2023-05-10T05:15:23;101038.91;;;12.41;100.00
58967;BME280;44744;51.894;5.080;2023-05-10T05:16:24;101041.29;;;12.40;100.00
58967;BME280;44744;51.894;5.080;2023-05-10T05:17:24;101043.08;;;12.39;100.00
58967;BME280;44744;51.894;5.080;2023-05-10T05:18:24;101044.01;;;12.39;100.00
58967;BME280;44744;51.894;5.080;2023-05-10T05:19:25;101046.20;;;12.38;100.00
58967;BME280;44744;51.894;5.080;2023-05-10T05:20:25;101047.88;;;12.36;100.00
58967;BME280;44744;51.894;5.080;2023-05-10T05:21:25;101050.80;;;12.35;100.00
58967;BME280;44744;51.894;5.080;2023-05-10T05:22:27;101050.69;;;12.34;100.00
58967;BME280;44744;51.894;5.080;2023-05-10T05:23:27;101048.42;;;12.33;100.00
58967;BME280;44744;51.894;5.080;2023-05-10T05:24:28;101051.21;;;12.34;100.00
58967;BME280;44744;51.894;5.080;2023-05-10T05:25:28;101048.96;;;12.33;100.00
58967;BME280;44744;51.894;5.080;2023-05-10T05:26:28;101052.09;;;12.34;100.00
58967;BME280;44744;51.894;5.080;2023-05-10T05:27:29;101048.27;;;12.33;100.00
58967;BME280;44744;51.894;5.080;2023-05-10T05:28:29;101050.92;;;12.33;100.00
58967;BME280;44744;51.894;5.080;2023-05-10T05:29:29;101050.95;;;12.32;100.00
58967;BME280;44744;51.894;5.080;2023-05-10T05:30:30;101053.61;;;12.32;100.00
58967;BME280;44744;51.894;5.080;2023-05-10T05:31:30;101055.73;;;12.32;100.00
58967;BME280;44744;51.894;5.080;2023-05-10T05:32:30;101057.54;;;12.32;100.00
58967;BME280;44744;51.894;5.080;2023-05-10T05:33:31;101061.11;;;12.31;100.00
58967;BME280;44744;51.894;5.080;2023-05-10T05:34:31;101061.70;;;12.31;100.00
58967;BME280;44744;51.894;5.080;2023-05-10T05:35:32;101056.08;;;12.30;100.00
58967;BME280;44744;51.894;5.080;2023-05-10T05:36:32;101060.38;;;12.28;100.00
58967;BME280;44744;51.894;5.080;2023-05-10T05:37:34;101060.27;;;12.27;100.00